KLCK Airport (Rickenbacker Intl) Information

FAA: LCK - ICAO: KLCK

KLCK Airport Location

State Ohio
County Franklin
City Columbus
KLCK Airport is 10 miles south of Columbus, OH.
Latitude 39-48-49.6000N
Longitude 082-55-40.1000W
Elevation 743ft

KLCK Airport METARs

METAR KLCK 161755Z AUTO 07003KT 10SM SCT027 SCT032 26/18 A3012 RMK AO2 T02560184 10264 20160
Altimeter 30.12"
Temperature 25.6°C (78.1°F)
Wind 70° at 3KT
Clouds scattered at 2,700ft scattered at 3,200ft
Visibility 10.0mi
Time observed: 2021-09-16T17:55:00Z

KLCK Airport Details

Status Operational
Activation July 1943
Ownership Public
Usage Public
Chart CINCINNATI
ATC on-site Yes
Beacon schedule sunset-sunrise
Beacon color clear green

KLCK Airport Contacts

Owner COLUMBUS RGNL AIRPORT AUTHORITY
Owner address 4600 INTERNATIONAL GATEWAY, COLUMBUS, OH 43219
Owner phone 614-239-4000
Manager JOHN LONTOR
Manager address 18000 STATION RD, COLUMBIA STATION, OH 44028
Manager phone N/A

KLCK Airport (Rickenbacker Intl) Radio Frequencies

KLCK (Airport) Radio Frequencies

UNICOM 122.95
Common traffic advisory frequency (CTAF) N/A